NV42 weather

Heritage Airport
Jean, Nevada, United States

Public forecast

Using degrees Fahrenheit for public forecast. Weather courtesy of forecast.io.

Closest aviation weather report (METAR) to Heritage Airport

Closest report is Henderson Executive Airport, 26.9 nm (49.9 km) ENE. Retrieved 2019/10/22 13:56 UTC (1 hour ago):

KHND 221356Z 18008KT 10SM CLR 11/M06 A3028 RMK AO2 SLP260 T01061061

Closest aviation forecast (TAF) to Heritage Airport

Closest forecast is Henderson Executive Airport, 26.9 nm (49.9 km) ENE. Retrieved 2019/10/22 12:22 UTC (3 hours ago):

TAF KHND 221120Z 2212/2312 15006KT P6SM SKC FM221500 VRB05KT P6SM SKC FM221800 02006KT P6SM SKC FM230300 21006KT P6SM SKC